首页
METAR-TAF:

METAR-TAF

机场 :

Avord, 法国

纬度: 47-03-12N, 经度: 002-37-57E, 海拔: 177米

当前天气观测

该预报发布于23分钟前的20:30 UTC
风速5节,风向南转西南
温度 6°C
湿度 87%
气压 1019 hPa
能见度10公里或以上
1500米以下无云,无积雨云

METAR: LFOA 292030Z AUTO 20005KT CAVOK 06/04 Q1019 NOSIG

时间: 21:53 (20:53 UTC)

预报

该预报发布于53分钟前的20:00 UTC
预报有效从29日的 21点(UTC)到 30日的 21点(UTC)
风速5节,风向南转西南
能见度10公里或以上
1500米以下无云,无积雨云
成为
从 30日的 06点(UTC)到 30日的 08点(UTC)
风速15节,风向南转西南
能見度: 4000
多云层高于1200英尺
阴天层高于3000英尺
小雨, 毛毛雨
短暂存在
从 30日的 08点(UTC)到 30日的 15点(UTC)
风速15节,风向西南,有时为25节阵风
能見度: 2000
阴天层高于800英尺

TAF: LFOA 292000Z 2921/3021 21005KT CAVOK BECMG 3006/3008 21015KT 4000 -RADZ BKN012 OVC030 TEMPO 3008/3015 23015G25KT 2000 RA OVC008

超过4000个机场的气象观测和天气预报(METAR&TAF报告)。

可查询的气象台以黄色和红色小点在地图上表示。

将鼠标移到小点上方,可查看气象台名称。

然后点击查看天气观测和预报。

如需切换地图:点击带黑十字的绿色按钮放大地图;点击带横线的绿色按钮缩小地图;或者点击绿色箭头查看邻近地区的地图。


METAR-TAF: